Sonic Adventure (DX): Overall Rankings

Records: Times | Rings | Scores | Races | Bosses | Freestyle
Leaders: Times | Rings | Scores | Races | Bosses | Freestyle | Overall
Rank Player Percent Points Date Grade
1 Sonicspeedruner 98.4% 247 03-04-15 S
2 Gamepro011 97.5% 389 03-04-15 A
3 DarkPolarNight 96.4% 568 03-04-15 A
4 Jawzun 93.9% 974 03-04-15 A
5 Dashjump 91.8% 1309 03-04-15 A
6 DarkspinesSonic 90.9% 1457 03-04-15 A
7 Avento128bits 90.4% 1540 03-04-15 A
8 ike6252 90.3% 1563 03-04-15 A
9 F-Man 86.1% 2232 03-04-15 A
10 HyperSonic7701 85.2% 2378 03-04-15 A
11 Coolfansonic 84.2% 2549 03-04-15 A
12 yoshifan 83.7% 2617 03-04-15 A
13 frankoredstrato 83.2% 2697 03-04-15 A
14 TheRealShadnic 82.3% 2852 03-04-15 A
15 francisco 82.2% 2866 03-04-15 A
16 Marth 81.8% 2931 03-04-15 A
17 InferSaime 80.6% 3125 03-04-15 A
18 PfoSonic 80.2% 3185 03-04-15 A
19 Paragod 79.7% 3275 03-04-15 B
20 THC98 78.4% 3480 03-04-15 B
21 Stefan 76.4% 3797 03-04-15 B
22 RPGnutter 74.2% 4156 03-04-15 B
23 bertin 74.1% 4173 03-04-15 B
24 sonicam 71.8% 4540 03-04-15 B
25 Combo 65.8% 5508 03-04-15 B
26 SkyLights 64.7% 5691 03-04-15 B
27 xXMegaManXx 63.7% 5845 03-04-15 B
28 Diamond 63.0% 5961 03-04-15 B
29 GerbilSoft 60.6% 6357 03-04-15 B
30 OmegaDJ 60.5% 6368 03-04-15 B
31 Auriman1 60.5% 6375 03-04-15 B
32 magnum12 59.5% 6533 03-04-15 C
33 Dawid8404 59.4% 6554 03-04-15 C
34 Thorn 57.5% 6859 03-04-15 C
35 P1 Pause 57.2% 6905 03-04-15 C
36 mike89 55.9% 7106 03-04-15 C
37 chainchumper 54.1% 7401 03-04-15 C
38 Groudon199 54.1% 7406 03-04-15 C
39 Dave Cramer 54.0% 7416 03-04-15 C
40 Parax 53.3% 7525 03-04-15 C
41 Shadow Jacky 53.0% 7588 03-04-15 C
42 drminus 49.6% 8125 03-04-15 C
43 Psymar 47.8% 8428 03-04-15 C
44 Chao_Fan 46.0% 8715 03-04-15 C
45 Arch 45.7% 8755 03-04-15 C
46 mauserman 45.5% 8787 03-04-15 C
47 Quartz 44.8% 8899 03-04-15 C
48 teamblackarms 43.9% 9057 03-04-15 C
49 Psyknux 43.6% 9093 03-04-15 C
50 James_Bertolli 43.1% 9184 03-04-15 C
51 NintenDan 42.5% 9279 03-04-15 C
52 Fr3nZy 42.0% 9362 03-04-15 C
53 Webber3000 41.9% 9373 03-04-15 C
54 Ring Rush 41.8% 9387 03-04-15 C
55 Turbos 41.8% 9395 03-04-15 C
56 Cream147 41.6% 9428 03-04-15 C
57 videogamemaster777 41.5% 9445 03-04-15 C
58 Siavash Tazari 41.2% 9490 03-04-15 C
59 buddychaos0415 40.8% 9555 03-04-15 C
60 SadisticMystic 40.0% 9674 03-04-15 C
61 eggFL 39.2% 9808 03-04-15 D
62 Redd 38.7% 9886 03-04-15 D
63 SB737 37.6% 10060 03-04-15 D
64 supersonicfan 36.4% 10260 03-04-15 D
65 FuzZerd 35.4% 10424 03-04-15 D
66 elecmouse101 34.7% 10542 03-04-15 D
67 supersonic465 34.5% 10562 03-04-15 D
68 Austinf 33.6% 10712 03-04-15 D
69 metanightmare22 33.0% 10814 03-04-15 D
70 Aitamen 33.0% 10815 03-04-15 D
71 dabestgamer 32.9% 10833 03-04-15 D
72 Cyan Ryan 32.7% 10852 03-04-15 D
73 MiStEr_ShAoLiN 32.7% 10854 03-04-15 D
74 itsPersonnal 31.9% 10990 03-04-15 D
75 Cybrax 30.9% 11144 03-04-15 D
76 Andrea Ritsu 30.7% 11178 03-04-15 D
77 danieldude 30.6% 11192 03-04-15 D
78 SilvertheAlmighty 30.6% 11197 03-04-15 D
79 VMU Player Banned 28.9% 11478 03-04-15 D
80 Omega Rafael Santos 28.3% 11573 03-04-15 D
81 Staf 28.3% 11576 03-04-15 D
82 The T 28.0% 11612 03-04-15 D
83 EngiNerd 27.7% 11662 03-04-15 D
84 lordmetalsonic 27.0% 11784 03-04-15 D
85 Hipertails12 26.8% 11815 03-04-15 D
86 welldooder64 26.3% 11884 03-04-15 D
87 GreatStar 26.3% 11892 03-04-15 D
87 Sondow 26.3% 11892 03-04-15 D
89 The Great Lord Mick 26.0% 11938 03-04-15 D
90 Mastakirby 26.0% 11945 03-04-15 D
91 LinksDarkArrows 25.9% 11964 03-04-15 D
92 Nimrod 25.6% 12012 03-04-15 D
93 Skylace 24.9% 12119 03-04-15 D
94 Rolken 23.4% 12353 03-04-15 D
95 Xia 21.9% 12596 03-04-15 D
96 Kogen Player Banned 21.8% 12619 03-04-15 D
97 Spinballwizard 21.7% 12638 03-04-15 D
98 Don 21.3% 12691 03-04-15 D
99 Miles9999 21.3% 12698 03-04-15 D
100 Cutiefox 21.3% 12700 03-04-15 D
101 f0rever_zer0 21.2% 12719 03-04-15 D
102 andres430 20.5% 12834 03-04-15 D
103 Cruizer 20.4% 12843 03-04-15 D
104 iSonicKid2K 20.2% 12884 03-04-15 D
105 SADXTryHard 19.8% 12947 03-04-15 E
106 GarnetPrincess 19.5% 12996 03-04-15 E
107 knuckles_sonic8 18.9% 13089 03-04-15 E
108 Team_Yoshi 18.3% 13176 03-04-15 E
109 KinkyCadence 18.0% 13232 03-04-15 E
110 The Knuckles Chao 17.9% 13246 03-04-15 E
111 FoxBoy 17.7% 13274 03-04-15 E
112 Termon 17.7% 13282 03-04-15 E
113 LittleBigness 17.3% 13342 03-04-15 E
114 SonicWinDX 17.0% 13397 03-04-15 E
115 Sonic Singularity 15.6% 13622 03-04-15 E
116 Pokemonmaster888 15.6% 13623 03-04-15 E
117 BigAL49 14.5% 13789 03-04-15 E
118 SilverSonic 14.3% 13821 03-04-15 E
119 MPit08 14.3% 13829 03-04-15 E
120 Mo Player Banned 14.1% 13863 03-04-15 E
121 Cod4Scopes 13.4% 13970 03-04-15 E
122 HyperSonic64 13.4% 13982 03-04-15 E
123 booo95 13.2% 13999 03-04-15 E
124 Chawkk 13.1% 14018 03-04-15 E
125 paulie9990 12.9% 14048 03-04-15 E
126 SuperSonic101 12.9% 14050 03-04-15 E
127 Hunters13 12.8% 14064 03-04-15 E
128 Maxinfamily 12.7% 14084 03-04-15 E
129 Flying Fox 12.5% 14114 03-04-15 E
130 PsyBorg 12.5% 14121 03-04-15 E
131 Kanimayo_Jp 12.4% 14134 03-04-15 E
132 BrokenArthritis 12.3% 14154 03-04-15 E
133 LilZero 12.2% 14166 03-04-15 E
134 sonicspeed 11.7% 14250 03-04-15 E
134 Therio 11.7% 14250 03-04-15 E
136 douglas 11.5% 14277 03-04-15 E
137 Matt_TY 11.2% 14324 03-04-15 E
138 Cooljay 10.6% 14428 03-04-15 E
139 joecoolgames 10.5% 14440 03-04-15 E
140 SeaWolf 10.5% 14445 03-04-15 E
141 TFEC Headshot 9.9% 14533 03-04-15 E
142 welshmoose05 9.9% 14543 03-04-15 E
143 crazy1993 9.6% 14585 03-04-15 E
144 Mcshuggets 9.5% 14600 03-04-15 E
145 videogamer1014 9.3% 14636 03-04-15 E
146 imazor017 9.1% 14664 03-04-15 E
147 nuckrieg 9.1% 14674 03-04-15 E
148 SonicAD 9.0% 14678 03-04-15 E
149 niscool 9.0% 14682 03-04-15 E
150 SirTobbii 8.9% 14693 03-04-15 E
151 superjupi 8.8% 14721 03-04-15 E
152 Shadowthegreat 8.8% 14723 03-04-15 E
153 SaviourDC 8.5% 14771 03-04-15 E
154 iarebored 8.4% 14776 03-04-15 E
155 sonamyfan666 8.4% 14785 03-04-15 E
156 Werey 8.3% 14804 03-04-15 E
157 SonicKnuckles 8.2% 14809 03-04-15 E
158 adf 7.9% 14858 03-04-15 E
159 ArcticDragon 7.9% 14865 03-04-15 E
160 Megaman EXE565 7.8% 14884 03-04-15 E
161 Game_Complete 7.5% 14922 03-04-15 E
162 Platformer 7.4% 14940 03-04-15 E
163 FocusSight64 7.3% 14956 03-04-15 E
164 timpkmn89 7.2% 14971 03-04-15 E
165 wheatrich 7.2% 14972 03-04-15 E
166 Swift Hobo 7.2% 14980 03-04-15 E
167 Rickyman48 7.0% 15003 03-04-15 E
168 KitsuneYamaro 6.8% 15042 03-04-15 E
169 Triseena 6.7% 15063 03-04-15 E
170 CyberShadow 6.5% 15088 03-04-15 E
171 slade23 6.4% 15104 03-04-15 E
172 dShadow 6.4% 15105 03-04-15 E
173 Starlight Sable 6.3% 15113 03-04-15 E
174 IsisDazs 6.2% 15136 03-04-15 E
175 BlankTH 6.1% 15160 03-04-15 E
176 Monkeh 5.8% 15204 03-04-15 E
177 Richied 5.7% 15212 03-04-15 E
178 DaDude 5.6% 15230 03-04-15 E
179 Zip 5.5% 15252 03-04-15 E
180 sonicd5 5.5% 15253 03-04-15 E
181 Kirbymon30 5.2% 15306 03-04-15 E
182 tal39h 5.1% 15307 03-04-15 E
183 soniccoloursunleashed 4.8% 15358 03-04-15 E
184 Drflash55 4.8% 15360 03-04-15 E
185 neaolas 4.7% 15387 03-04-15 E
186 Bass 4.6% 15388 03-04-15 E
187 Yish 4.6% 15393 03-04-15 E
188 superiorsonic 4.5% 15404 03-04-15 E
189 UninspiredUsername 4.5% 15407 03-04-15 E
190 Sonicsuperstar1 4.5% 15410 03-04-15 E
191 zapp 4.5% 15412 03-04-15 E
192 gamefreak1292 4.4% 15428 03-04-15 E
193 SonicU260 4.1% 15475 03-04-15 E
194 Chaos_Overlord 4.1% 15477 03-04-15 E
195 TakaRikka 4.0% 15495 03-04-15 E
196 Valfore 3.9% 15502 03-04-15 E
197 ShinigamiMachine 3.8% 15529 03-04-15 E
198 Regano1000 3.7% 15540 03-04-15 E
199 MK 3.6% 15556 03-04-15 E
200 Ace747 3.5% 15567 03-04-15 E
201 Illidan 3.2% 15614 03-04-15 E
202 Venick409 3.1% 15635 03-04-15 E
203 Brian_pso 3.1% 15644 03-04-15 E
204 Mariobutch 3.1% 15645 03-04-15 E
205 Sithwarrior26 3.0% 15648 03-04-15 E
206 TheChaosEmeraIds 2.9% 15667 03-04-15 E
207 ingx24 2.9% 15668 03-04-15 E
208 SkyBon 2.9% 15677 03-04-15 E
209 Nickson98 2.8% 15679 03-04-15 E
210 Fozer 2.8% 15691 03-04-15 E
211 FSSRandomvids 2.7% 15695 03-04-15 E
212 sonic29887 2.7% 15697 03-04-15 E
213 Colomb_30 2.7% 15700 03-04-15 E
214 TheUltraBlur 2.6% 15716 03-04-15 E
215 1stKirbyever 2.5% 15729 03-04-15 E
216 Th4tN1nj4Turtl3 2.3% 15760 03-04-15 E
217 Cort_pso 2.3% 15765 03-04-15 E
218 Doom-9 2.3% 15771 03-04-15 E
219 ieatatsonic 2.2% 15775 03-04-15 E
220 Mariosonic15 2.2% 15778 03-04-15 E
221 SuperSonic71087 2.2% 15787 03-04-15 E
222 MStitomix 2.1% 15796 03-04-15 E
223 HermitHelmet 2.1% 15800 03-04-15 E
224 Artie 2.0% 15812 03-04-15 E
225 Got4n 2.0% 15814 03-04-15 E
226 Jose_15 1.9% 15825 03-04-15 E
227 Questionguy555 1.9% 15827 03-04-15 E
228 a_moustache 1.9% 15834 03-04-15 E
229 djmat 1.9% 15838 03-04-15 E
230 sonicandamy 1.7% 15858 03-04-15 E
231 LancexExWx 1.7% 15862 03-04-15 E
232 son1cgu1tar 1.7% 15866 03-04-15 E
233 Heroes_Hater 1.7% 15867 03-04-15 E
234 Paixii 1.6% 15874 03-04-15 E
235 BallzeH 1.5% 15889 03-04-15 E
236 Mankster101 1.5% 15894 03-04-15 E
237 BecauseWarAnvil 1.5% 15897 03-04-15 E
238 Jamixesa 1.5% 15898 03-04-15 E
239 Crydio 1.4% 15907 03-04-15 E
240 Shanekilz 1.4% 15908 03-04-15 E
240 SpiritDragon1995 1.4% 15908 03-04-15 E
242 ReuelBrony 1.4% 15918 03-04-15 E
243 stanski 1.3% 15924 03-04-15 E
244 MarewBFN 1.3% 15925 03-04-15 E
245 Sonique Hedgehog 1.3% 15930 03-04-15 E
246 p0ker 1.2% 15940 03-04-15 E
247 Blue Infamy 1.2% 15941 03-04-15 E
248 ErrortheCucco 1.2% 15950 03-04-15 E
249 Arthas 1.2% 15951 03-04-15 E
250 Rikum22 1.1% 15953 03-04-15 E
251 sonic1001 1.1% 15961 03-04-15 E
252 WingedInsignia 1.1% 15963 03-04-15 E
253 syco1098 1.1% 15968 03-04-15 E
254 AJSIV 1.0% 15969 03-04-15 E
255 Sonic the Hedgehod16 1.0% 15971 03-04-15 E
256 Calfd 1.0% 15975 03-04-15 E
257 BlackArmsShadow 0.9% 15988 03-04-15 E
258 themachoman202 0.9% 15992 03-04-15 E
259 Ben1502 0.9% 15998 03-04-15 E
260 MastaToken 0.9% 15999 03-04-15 E
260 shadowblast63 Player Banned 0.9% 15999 03-04-15 E
262 Fivavoa 0.9% 16000 03-04-15 E
262 Greham Adelphis 0.9% 16000 03-04-15 E
264 Mr. Jones 0.8% 16002 03-04-15 E
265 darkstarblaze 0.8% 16003 03-04-15 E
265 ptorflaxendrosis 0.8% 16003 03-04-15 E
267 arcfx1985 0.8% 16004 03-04-15 E
268 Gvozdevik 0.8% 16007 03-04-15 E
268 Knuckles 0.8% 16007 03-04-15 E
270 FlandreScarlet9999vr 0.8% 16009 03-04-15 E
271 KaM Mark MaK 0.7% 16017 03-04-15 E
272 BeeAwwb 0.7% 16021 03-04-15 E
273 ShadouZaHejjihoggu 0.7% 16024 03-04-15 E
274 Sonic62 0.7% 16030 03-04-15 E
275 darkersupershadic 0.6% 16033 03-04-15 E
276 Sogeking 0.6% 16034 03-04-15 E
277 dragondragon18 0.6% 16037 03-04-15 E
277 Shadygamerfreak 0.6% 16037 03-04-15 E
279 Sarger001 0.6% 16038 03-04-15 E
279 SonicK100 0.6% 16038 03-04-15 E
281 Grady219 0.6% 16039 03-04-15 E
282 Jawaah 0.6% 16043 03-04-15 E
283 Antek 0.6% 16047 03-04-15 E
284 SilverK 0.6% 16048 03-04-15 E
285 Klaus 0.6% 16049 03-04-15 E
286 BioShadow 0.5% 16054 03-04-15 E
287 SpinDashMaster 0.5% 16055 03-04-15 E
288 Videogamer123 0.5% 16059 03-04-15 E
289 Egor305 0.4% 16073 03-04-15 E
289 oTaiIilLsS 0.4% 16073 03-04-15 E
291 isaihtb11 0.4% 16075 03-04-15 E
292 Mad Andy 0.4% 16076 03-04-15 E
292 OhNoes! 0.4% 16076 03-04-15 E
294 zaktu40 0.4% 16077 03-04-15 E
295 S-MS32X-S 0.4% 16079 03-04-15 E
296 gaara1234 0.4% 16080 03-04-15 E
297 gamed00d 0.4% 16081 03-04-15 E
298 Mister_Slick 0.3% 16091 03-04-15 E
299 Sonic06Fan 0.3% 16093 03-04-15 E
300 Rush Hero 0.3% 16094 03-04-15 E
301 SonicMega167 0.3% 16097 03-04-15 E
302 Iwannabelink 0.2% 16098 03-04-15 E
303 sonknuck23 0.2% 16103 03-04-15 E
304 gamer1245 0.2% 16108 03-04-15 E
305 DanielTheFalcon 0.2% 16109 03-04-15 E
306 Burningskull123 0.1% 16116 03-04-15 E
307 Sonicontherun 0.1% 16126 03-04-15 E
308 Lil_Dude 0.0% 16130 03-04-15 E
309 antiwwe 0.0% 16132 03-04-15 E
310 Cbwade15 0.0% 16136 03-04-15 E
310 Genuine Hedgehog 0.0% 16136 03-04-15 E
312 Tyrouble 0.0% 16139 03-04-15 E
313 MegabombBlade 0.0% 16146 03-04-15 E
313 neji_hyuuga 0.0% 16146 03-04-15 E
313 Over 0.0% 16146 03-04-15 E
313 sdj6707 Player Banned 0.0% 16146 03-04-15 E
313 Tran Sonic Fan Player Banned 0.0% 16146 03-04-15 E

This page is using the New Data Table System. [FUTURE]


-- Back to Normal Skin --
Game ID: 3 | Category ID: 10
Hits: 62,568 | Hits This Month: 67 | DB Calls: 16 | Mem Usage: 5.44 MB | Time: 0.12s | Printable

The Sonic Center v3.9
Copyright 2003-2011 by The Sonic Center Team.